createdAt,value
2022-09-18T00:00:10.469Z,34.0380
2022-09-18T00:00:21.650Z,33.9010
2022-09-18T00:00:32.780Z,33.8570
2022-09-18T00:00:43.911Z,33.8860
2022-09-18T00:00:55.048Z,33.8070
2022-09-18T00:01:06.170Z,33.8250
2022-09-18T00:01:17.329Z,33.8860
2022-09-18T00:01:28.510Z,33.9060
2022-09-18T00:01:39.694Z,33.9380
2022-09-18T00:01:51.070Z,33.9660
2022-09-18T00:02:02.377Z,33.9780
2022-09-18T00:02:13.651Z,33.9270
2022-09-18T00:02:24.749Z,33.8590
2022-09-18T00:02:35.961Z,33.8310
2022-09-18T00:02:47.107Z,33.7220
2022-09-18T00:02:58.305Z,33.6850
2022-09-18T00:03:09.471Z,33.8270
2022-09-18T00:03:20.650Z,33.8490
2022-09-18T00:03:31.773Z,33.8320
2022-09-18T00:03:42.930Z,33.7590
2022-09-18T00:03:54.187Z,33.7420
2022-09-18T00:04:05.325Z,33.8280
2022-09-18T00:04:16.456Z,33.8280
2022-09-18T00:04:27.590Z,33.8350
2022-09-18T00:04:38.714Z,33.8230
2022-09-18T00:04:49.841Z,33.7160
2022-09-18T00:05:01.010Z,33.7320
2022-09-18T00:05:12.212Z,33.9170
2022-09-18T00:05:23.333Z,33.9280
2022-09-18T00:05:34.460Z,33.9280
2022-09-18T00:05:45.591Z,33.9100
2022-09-18T00:05:56.870Z,33.9210
2022-09-18T00:06:08.028Z,34.0010
2022-09-18T00:06:19.167Z,34.0510
2022-09-18T00:06:30.296Z,33.9580
2022-09-18T00:06:41.492Z,33.9750
2022-09-18T00:06:52.624Z,33.9980
2022-09-18T00:07:03.746Z,33.9750
2022-09-18T00:07:14.915Z,33.9980
2022-09-18T00:07:26.093Z,34.0280
2022-09-18T00:07:37.233Z,34.0390
2022-09-18T00:07:48.355Z,34.0720
2022-09-18T00:07:59.627Z,33.9940
2022-09-18T00:08:10.766Z,33.9490
2022-09-18T00:08:21.892Z,33.9210
2022-09-18T00:08:33.027Z,33.9550
2022-09-18T00:08:44.163Z,33.9710
2022-09-18T00:08:55.300Z,33.9160
2022-09-18T00:09:06.443Z,33.9710
2022-09-18T00:09:17.578Z,34.0620
2022-09-18T00:09:28.698Z,34.0290
2022-09-18T00:09:39.843Z,34.0230
2022-09-18T00:09:50.966Z,34.1190
2022-09-18T00:10:02.275Z,34.0680
2022-09-18T00:10:13.405Z,34.1080
2022-09-18T00:10:24.532Z,34.1050
2022-09-18T00:10:35.659Z,34.0770
2022-09-18T00:10:46.790Z,33.9440
2022-09-18T00:10:57.907Z,33.9490
2022-09-18T00:11:09.028Z,34.0860
2022-09-18T00:11:20.206Z,33.9770
2022-09-18T00:11:31.345Z,33.9870
2022-09-18T00:11:42.464Z,34.0170
2022-09-18T00:11:53.592Z,34.0670
2022-09-18T00:12:04.871Z,34.0890
2022-09-18T00:12:16.033Z,34.0170
2022-09-18T00:12:27.164Z,34.0170
2022-09-18T00:12:38.413Z,34.0730
2022-09-18T00:12:49.490Z,34.0800
2022-09-18T00:13:00.684Z,33.9820
2022-09-18T00:13:11.808Z,33.8010
2022-09-18T00:13:22.935Z,33.7830
2022-09-18T00:13:34.056Z,33.7720
2022-09-18T00:13:45.185Z,33.8200
2022-09-18T00:13:56.367Z,33.8420
2022-09-18T00:14:07.646Z,33.8990
2022-09-18T00:14:18.776Z,33.9490
2022-09-18T00:14:29.965Z,33.9240
2022-09-18T00:14:41.096Z,34.0160
2022-09-18T00:14:52.226Z,34.0270
2022-09-18T00:15:03.358Z,33.9920
2022-09-18T00:15:14.498Z,33.9860
2022-09-18T00:15:25.643Z,33.8520
2022-09-18T00:15:36.775Z,33.8390
2022-09-18T00:15:47.954Z,33.8460
2022-09-18T00:15:59.052Z,33.9130
2022-09-18T00:16:10.382Z,33.7660
2022-09-18T00:16:21.573Z,33.6100
2022-09-18T00:16:32.756Z,33.7000
2022-09-18T00:16:43.860Z,33.7280
2022-09-18T00:16:54.989Z,33.8420
2022-09-18T00:17:09.169Z,33.8530
2022-09-18T00:17:20.500Z,33.9130
2022-09-18T00:17:31.630Z,33.8680
2022-09-18T00:17:42.765Z,33.9130
2022-09-18T00:17:53.891Z,33.8580
2022-09-18T00:18:05.032Z,33.8450
2022-09-18T00:18:16.355Z,33.8120
2022-09-18T00:18:27.494Z,33.9310
2022-09-18T00:18:38.614Z,33.8790
2022-09-18T00:18:49.737Z,33.9240
2022-09-18T00:19:00.870Z,33.9980
2022-09-18T00:19:12.006Z,33.9760
2022-09-18T00:19:23.078Z,33.9440
2022-09-18T00:19:34.200Z,33.9380
2022-09-18T00:19:45.337Z,33.9440
2022-09-18T00:19:56.470Z,33.9270
2022-09-18T00:20:07.590Z,33.9550
2022-09-18T00:20:18.774Z,33.9660
2022-09-18T00:20:30.123Z,33.9490
2022-09-18T00:20:41.270Z,34.0170
2022-09-18T00:20:52.403Z,34.0380
2022-09-18T00:21:03.571Z,33.9860
2022-09-18T00:21:14.780Z,33.9400
2022-09-18T00:21:25.977Z,33.9530
2022-09-18T00:21:37.115Z,33.8050
2022-09-18T00:21:48.247Z,33.9070
2022-09-18T00:21:59.381Z,33.9290
2022-09-18T00:22:10.513Z,33.8790
2022-09-18T00:22:21.661Z,33.8610
2022-09-18T00:22:32.993Z,33.7430
2022-09-18T00:22:44.132Z,33.7170
2022-09-18T00:22:55.267Z,33.8180
2022-09-18T00:23:06.448Z,33.7850
2022-09-18T00:23:17.581Z,33.8860
2022-09-18T00:23:28.708Z,33.8470
2022-09-18T00:23:39.875Z,33.8640
2022-09-18T00:23:51.005Z,33.9440
2022-09-18T00:24:02.193Z,33.9880
2022-09-18T00:24:13.325Z,34.0170
2022-09-18T00:24:24.451Z,33.9940
2022-09-18T00:24:35.733Z,33.9660
2022-09-18T00:24:46.922Z,33.9350
2022-09-18T00:24:58.052Z,33.9640
2022-09-18T00:25:09.180Z,33.8960
2022-09-18T00:25:20.319Z,33.8110
2022-09-18T00:25:31.451Z,33.8740
2022-09-18T00:25:42.614Z,33.9180
2022-09-18T00:25:53.741Z,33.9180
2022-09-18T00:26:04.869Z,33.9470
2022-09-18T00:26:16.005Z,33.8740
2022-09-18T00:26:27.134Z,33.9290
2022-09-18T00:26:38.439Z,34.0200
2022-09-18T00:26:49.576Z,33.9640
2022-09-18T00:27:00.699Z,33.9070
2022-09-18T00:27:11.894Z,33.9330
2022-09-18T00:27:23.059Z,33.9160
2022-09-18T00:27:34.182Z,33.8210
2022-09-18T00:27:45.439Z,33.7120
2022-09-18T00:27:56.527Z,33.8430
2022-09-18T00:28:07.656Z,33.8170
2022-09-18T00:28:18.782Z,33.7950
2022-09-18T00:28:29.972Z,33.8400
2022-09-18T00:28:41.315Z,33.9430
2022-09-18T00:28:52.440Z,33.9930
2022-09-18T00:29:03.572Z,33.9860
2022-09-18T00:29:14.691Z,33.9290
2022-09-18T00:29:25.823Z,33.9750
2022-09-18T00:29:36.951Z,34.0600
2022-09-18T00:29:48.079Z,33.9690
2022-09-18T00:29:59.243Z,33.9120
2022-09-18T00:30:10.371Z,33.9060
2022-09-18T00:30:21.502Z,33.9230
2022-09-18T00:30:32.637Z,34.0080
2022-09-18T00:30:43.913Z,34.0650
2022-09-18T00:30:55.168Z,34.0760
2022-09-18T00:31:06.358Z,34.0190
2022-09-18T00:31:17.543Z,34.0480
2022-09-18T00:31:28.745Z,34.0480
2022-09-18T00:31:40.024Z,33.9170
2022-09-18T00:31:51.401Z,33.9510
2022-09-18T00:32:02.572Z,33.9400
2022-09-18T00:32:13.695Z,33.9800
2022-09-18T00:32:24.887Z,33.9570
2022-09-18T00:32:36.046Z,33.8720
2022-09-18T00:32:47.322Z,33.8050
2022-09-18T00:32:58.440Z,33.7440
2022-09-18T00:33:09.581Z,33.7120
2022-09-18T00:33:20.710Z,33.6360
2022-09-18T00:33:31.843Z,33.7740
2022-09-18T00:33:42.984Z,33.8590
2022-09-18T00:33:54.113Z,33.9030
2022-09-18T00:34:05.238Z,33.8920
2022-09-18T00:34:16.373Z,33.8970
2022-09-18T00:34:27.505Z,33.9750
2022-09-18T00:34:38.645Z,33.9400
2022-09-18T00:34:49.959Z,33.9240
2022-09-18T00:35:01.099Z,33.9580
2022-09-18T00:35:12.229Z,33.9290
2022-09-18T00:35:23.413Z,33.9130
2022-09-18T00:35:34.610Z,33.8500
2022-09-18T00:35:45.744Z,33.7760
2022-09-18T00:35:56.875Z,33.8680
2022-09-18T00:36:07.999Z,33.9020
2022-09-18T00:36:19.133Z,33.8550
2022-09-18T00:36:30.293Z,33.8820
2022-09-18T00:36:41.493Z,33.8820
2022-09-18T00:36:52.757Z,33.8430
2022-09-18T00:37:03.884Z,33.6620
2022-09-18T00:37:15.014Z,33.7540
2022-09-18T00:37:26.172Z,33.8440
2022-09-18T00:37:37.298Z,33.8390
2022-09-18T00:37:48.429Z,33.8390
2022-09-18T00:37:59.552Z,33.8440
2022-09-18T00:38:10.680Z,33.9180
2022-09-18T00:38:21.806Z,33.8960
2022-09-18T00:38:32.948Z,33.9070
2022-09-18T00:38:44.073Z,33.8900
2022-09-18T00:38:55.393Z,33.9180
2022-09-18T00:39:06.533Z,33.9290
2022-09-18T00:39:17.660Z,33.8870
2022-09-18T00:39:28.852Z,33.9000
2022-09-18T00:39:39.981Z,33.8870
2022-09-18T00:39:51.185Z,33.8760
2022-09-18T00:40:02.408Z,33.9320
2022-09-18T00:40:13.605Z,33.8750
2022-09-18T00:40:24.802Z,33.6940
2022-09-18T00:40:36.045Z,33.6780
2022-09-18T00:40:47.250Z,33.7230
2022-09-18T00:40:58.527Z,33.7800
2022-09-18T00:41:09.649Z,33.7910
2022-09-18T00:41:20.854Z,33.8020
2022-09-18T00:41:32.055Z,33.7630
2022-09-18T00:41:43.192Z,33.7860
2022-09-18T00:41:54.309Z,33.7970
2022-09-18T00:42:05.441Z,33.8580
2022-09-18T00:42:16.575Z,33.8750
2022-09-18T00:42:27.777Z,33.8400
2022-09-18T00:42:38.929Z,33.9190
2022-09-18T00:42:50.252Z,33.9820
2022-09-18T00:43:01.500Z,33.9990
2022-09-18T00:43:12.635Z,33.9630
2022-09-18T00:43:23.772Z,33.9120
2022-09-18T00:43:34.923Z,33.7810
2022-09-18T00:43:46.039Z,33.7250
2022-09-18T00:43:57.173Z,33.7870
2022-09-18T00:44:08.302Z,33.9450
2022-09-18T00:44:19.427Z,33.9170
2022-09-18T00:44:30.610Z,33.9170
2022-09-18T00:44:41.809Z,33.9170
2022-09-18T00:44:52.941Z,33.9570
2022-09-18T00:45:04.227Z,33.9450
2022-09-18T00:45:15.407Z,33.9630
2022-09-18T00:45:26.541Z,34.0130
2022-09-18T00:45:37.670Z,33.9230
2022-09-18T00:45:48.798Z,33.7980
2022-09-18T00:45:59.937Z,33.6460
2022-09-18T00:46:11.150Z,33.6420
2022-09-18T00:46:22.406Z,33.7330
2022-09-18T00:46:33.634Z,33.7690
2022-09-18T00:46:44.846Z,33.8320
2022-09-18T00:46:56.042Z,33.8480
2022-09-18T00:47:07.340Z,33.7900
2022-09-18T00:47:18.468Z,33.7290
2022-09-18T00:47:29.629Z,33.7010
2022-09-18T00:47:40.760Z,33.7370
2022-09-18T00:47:51.887Z,33.6640
2022-09-18T00:48:03.022Z,33.6410
2022-09-18T00:48:14.148Z,33.6320
2022-09-18T00:48:25.322Z,33.6710
2022-09-18T00:48:36.445Z,33.6710
2022-09-18T00:48:47.578Z,33.7330
2022-09-18T00:48:58.800Z,33.8360
2022-09-18T00:49:10.116Z,33.8240
2022-09-18T00:49:21.235Z,33.8220
2022-09-18T00:49:32.368Z,33.7370
2022-09-18T00:49:43.491Z,33.8740
2022-09-18T00:49:54.616Z,33.7910
2022-09-18T00:50:05.655Z,33.8930
2022-09-18T00:50:16.847Z,33.8690
2022-09-18T00:50:27.977Z,33.9020
2022-09-18T00:50:39.108Z,33.9080
2022-09-18T00:50:50.221Z,33.8850
2022-09-18T00:51:01.345Z,33.8290
2022-09-18T00:51:12.678Z,33.7380
2022-09-18T00:51:23.810Z,33.7160
2022-09-18T00:51:34.943Z,33.7160
2022-09-18T00:51:46.136Z,33.7270
2022-09-18T00:51:57.325Z,33.8060
2022-09-18T00:52:08.462Z,33.8380
2022-09-18T00:52:19.600Z,33.7530
2022-09-18T00:52:30.778Z,33.7020
2022-09-18T00:52:41.924Z,33.6760
2022-09-18T00:52:53.056Z,33.7330
2022-09-18T00:53:04.212Z,33.7210
2022-09-18T00:53:15.550Z,33.7060
2022-09-18T00:53:26.632Z,33.5480
2022-09-18T00:53:37.804Z,33.5000
2022-09-18T00:53:48.923Z,33.5220
2022-09-18T00:54:00.128Z,33.5560
2022-09-18T00:54:11.238Z,33.6520
2022-09-18T00:54:22.368Z,33.7090
2022-09-18T00:54:33.493Z,33.7700
2022-09-18T00:54:44.692Z,33.7620
2022-09-18T00:54:55.824Z,33.7820
2022-09-18T00:55:06.939Z,33.7700
2022-09-18T00:55:18.208Z,33.8000
2022-09-18T00:55:29.337Z,33.7370
2022-09-18T00:55:40.450Z,33.7480
2022-09-18T00:55:51.577Z,33.7940
2022-09-18T00:56:02.761Z,33.8050
2022-09-18T00:56:13.888Z,33.6360
2022-09-18T00:56:25.022Z,33.5510
2022-09-18T00:56:36.146Z,33.6180
2022-09-18T00:56:47.289Z,33.7170
2022-09-18T00:56:58.447Z,33.7110
2022-09-18T00:57:09.579Z,33.5920
2022-09-18T00:57:20.868Z,33.5690
2022-09-18T00:57:32.087Z,33.6260
2022-09-18T00:57:43.225Z,33.5950
2022-09-18T00:57:54.486Z,33.6470
2022-09-18T00:58:05.571Z,33.6520
2022-09-18T00:58:16.700Z,33.6690
2022-09-18T00:58:27.814Z,33.6690
2022-09-18T00:58:38.939Z,33.6690
2022-09-18T00:58:50.128Z,33.6910
2022-09-18T00:59:01.261Z,33.7020
2022-09-18T00:59:12.390Z,33.5700
2022-09-18T00:59:23.664Z,33.4580
2022-09-18T00:59:34.799Z,33.4690
2022-09-18T00:59:45.927Z,33.5420
2022-09-18T00:59:57.063Z,33.6160
2022-09-18T01:00:08.219Z,33.7520
2022-09-18T01:00:19.413Z,33.7750
2022-09-18T01:00:30.543Z,33.6590
2022-09-18T01:00:41.701Z,33.5410
2022-09-18T01:00:52.891Z,33.4670
2022-09-18T01:01:04.138Z,33.5170
2022-09-18T01:01:15.339Z,33.4690
2022-09-18T01:01:26.668Z,33.4470
2022-09-18T01:01:37.873Z,33.6180
2022-09-18T01:01:49.093Z,33.6470
2022-09-18T01:02:00.304Z,33.6470
2022-09-18T01:02:11.497Z,33.6910
2022-09-18T01:02:22.692Z,33.7020
2022-09-18T01:02:34.006Z,33.7430
2022-09-18T01:02:45.178Z,33.7750
2022-09-18T01:02:56.313Z,33.7690
2022-09-18T01:03:07.441Z,33.7660
2022-09-18T01:03:18.612Z,33.7050
2022-09-18T01:03:29.963Z,33.7490
2022-09-18T01:03:41.084Z,33.7870
2022-09-18T01:03:52.224Z,33.7530
2022-09-18T01:04:03.410Z,33.8210
2022-09-18T01:04:14.537Z,33.7390
2022-09-18T01:04:25.667Z,33.6960
2022-09-18T01:04:36.815Z,33.7750
2022-09-18T01:04:47.927Z,33.6340
2022-09-18T01:04:59.090Z,33.6460
2022-09-18T01:05:10.297Z,33.6460
2022-09-18T01:05:21.489Z,33.5490
2022-09-18T01:05:32.763Z,33.4670
2022-09-18T01:05:43.889Z,33.4630
2022-09-18T01:05:55.022Z,33.5110
2022-09-18T01:06:06.157Z,33.5380
2022-09-18T01:06:17.272Z,33.6180
2022-09-18T01:06:28.391Z,33.5000
2022-09-18T01:06:39.565Z,33.4660
2022-09-18T01:06:50.702Z,33.5840
2022-09-18T01:07:01.851Z,33.6690
2022-09-18T01:07:12.970Z,33.6620
2022-09-18T01:07:24.110Z,33.6490
2022-09-18T01:07:35.408Z,33.5700
2022-09-18T01:07:46.550Z,33.4360
2022-09-18T01:07:57.680Z,33.5260
2022-09-18T01:08:08.859Z,33.5530
2022-09-18T01:08:20.053Z,33.5830
2022-09-18T01:08:31.171Z,33.6270
2022-09-18T01:08:44.236Z,33.7470
2022-09-18T01:08:55.464Z,33.6900
2022-09-18T01:09:06.593Z,33.6700
2022-09-18T01:09:28.056Z,33.6420
2022-09-18T01:09:34.678Z,33.8840
2022-09-18T01:09:45.963Z,33.7980
2022-09-18T01:09:57.100Z,33.6790
2022-09-18T01:10:08.235Z,33.6700
2022-09-18T01:10:19.414Z,33.6200
2022-09-18T01:10:30.538Z,33.5570
2022-09-18T01:10:41.664Z,33.5350
2022-09-18T01:10:52.800Z,33.5410
2022-09-18T01:11:03.939Z,33.5310
2022-09-18T01:11:15.088Z,33.5770
2022-09-18T01:11:26.223Z,33.5150
2022-09-18T01:11:37.365Z,33.5260
2022-09-18T01:11:48.646Z,33.4910
2022-09-18T01:11:59.777Z,33.5370
2022-09-18T01:12:10.914Z,33.6050
2022-09-18T01:12:22.044Z,33.6310
2022-09-18T01:12:33.174Z,33.5960
2022-09-18T01:12:44.350Z,33.5410
2022-09-18T01:12:55.484Z,33.6020
2022-09-18T01:13:06.721Z,33.6020
2022-09-18T01:13:17.796Z,33.6530
2022-09-18T01:13:28.922Z,33.6650
2022-09-18T01:13:40.062Z,33.5630
2022-09-18T01:13:51.393Z,33.6250
2022-09-18T01:14:02.536Z,33.5520
2022-09-18T01:14:13.657Z,33.5570
2022-09-18T01:14:24.871Z,33.5350
2022-09-18T01:14:36.048Z,33.5060
2022-09-18T01:14:47.183Z,33.5740
2022-09-18T01:14:58.313Z,33.5300
2022-09-18T01:15:09.447Z,33.5410
2022-09-18T01:15:20.579Z,33.5740
2022-09-18T01:15:31.710Z,33.6460
2022-09-18T01:15:42.867Z,33.7530
2022-09-18T01:15:54.200Z,33.6520
2022-09-18T01:16:05.367Z,33.5540
2022-09-18T01:16:16.561Z,33.4420
2022-09-18T01:16:27.793Z,33.5490
2022-09-18T01:16:39.025Z,33.4680
2022-09-18T01:16:50.127Z,33.3570
2022-09-18T01:17:01.259Z,33.3970
2022-09-18T01:17:12.389Z,33.3260
2022-09-18T01:17:23.526Z,33.3090
2022-09-18T01:17:34.650Z,33.3030
2022-09-18T01:17:45.845Z,33.3530
2022-09-18T01:17:57.152Z,33.2920
2022-09-18T01:18:08.280Z,33.4840
2022-09-18T01:18:19.414Z,33.4620
2022-09-18T01:18:30.543Z,33.5110
2022-09-18T01:18:41.683Z,33.5300
2022-09-18T01:18:52.818Z,33.5170
2022-09-18T01:19:03.947Z,33.5270
2022-09-18T01:19:15.065Z,33.4930
2022-09-18T01:19:26.195Z,33.3970
2022-09-18T01:19:37.329Z,33.4780
2022-09-18T01:19:48.461Z,33.4950
2022-09-18T01:19:59.737Z,33.5170
2022-09-18T01:20:10.867Z,33.5380
2022-09-18T01:20:22.000Z,33.5380
2022-09-18T01:20:33.075Z,33.4640
2022-09-18T01:20:44.214Z,33.4990
2022-09-18T01:20:55.337Z,33.4090
2022-09-18T01:21:06.462Z,33.4140
2022-09-18T01:21:17.651Z,33.4640
2022-09-18T01:21:28.781Z,33.4820
2022-09-18T01:21:39.905Z,33.5040
2022-09-18T01:21:51.045Z,33.4470
2022-09-18T01:22:02.181Z,33.4750
2022-09-18T01:22:13.460Z,33.4880
2022-09-18T01:22:24.585Z,33.4310
2022-09-18T01:22:35.715Z,33.3910
2022-09-18T01:22:46.893Z,33.3420
2022-09-18T01:22:58.027Z,33.3560
2022-09-18T01:23:09.156Z,33.3950
2022-09-18T01:23:20.291Z,33.4690
2022-09-18T01:23:31.427Z,33.4060
2022-09-18T01:23:42.611Z,33.4630
2022-09-18T01:23:53.735Z,33.4890
2022-09-18T01:24:04.867Z,33.5060
2022-09-18T01:24:15.921Z,33.4500
2022-09-18T01:24:27.233Z,33.5520
2022-09-18T01:24:38.345Z,33.5720
2022-09-18T01:24:49.473Z,33.5040
2022-09-18T01:25:00.608Z,33.5100
2022-09-18T01:25:11.744Z,33.5640
2022-09-18T01:25:22.880Z,33.6150
2022-09-18T01:25:34.015Z,33.5310
2022-09-18T01:25:45.172Z,33.4630
2022-09-18T01:25:56.300Z,33.5140
2022-09-18T01:26:07.430Z,33.5080
2022-09-18T01:26:18.556Z,33.5010
2022-09-18T01:26:29.815Z,33.5010
2022-09-18T01:26:40.957Z,33.4680
2022-09-18T01:26:52.092Z,33.4790
2022-09-18T01:27:03.247Z,33.5530
2022-09-18T01:27:14.429Z,33.6100
2022-09-18T01:27:25.545Z,33.6260
2022-09-18T01:27:36.707Z,33.6210
2022-09-18T01:27:47.871Z,33.4960
2022-09-18T01:27:59.000Z,33.2990
2022-09-18T01:28:10.272Z,33.3100
2022-09-18T01:28:21.358Z,33.4290
2022-09-18T01:28:32.673Z,33.2990
2022-09-18T01:28:43.799Z,33.3410
2022-09-18T01:28:54.936Z,33.2670
2022-09-18T01:29:06.132Z,33.1560
2022-09-18T01:29:17.326Z,33.0420
2022-09-18T01:29:28.442Z,32.9940
2022-09-18T01:29:39.560Z,32.9710
2022-09-18T01:29:50.686Z,33.1340
2022-09-18T01:30:01.815Z,33.0540
2022-09-18T01:30:12.941Z,32.9700
2022-09-18T01:30:24.072Z,33.0770
2022-09-18T01:30:35.348Z,33.1280
2022-09-18T01:30:46.493Z,33.2240
2022-09-18T01:30:57.658Z,33.1890
2022-09-18T01:31:08.820Z,33.1680
2022-09-18T01:31:20.040Z,33.1790
2022-09-18T01:31:31.309Z,33.2470
2022-09-18T01:31:42.545Z,33.2820
2022-09-18T01:31:53.697Z,33.2870
2022-09-18T01:32:04.823Z,33.2740
2022-09-18T01:32:15.953Z,33.2630
2022-09-18T01:32:27.083Z,33.2410
2022-09-18T01:32:38.371Z,33.2640
2022-09-18T01:32:49.514Z,33.3040
2022-09-18T01:33:00.691Z,33.1850
2022-09-18T01:33:11.827Z,33.2030
2022-09-18T01:33:22.952Z,33.1830
2022-09-18T01:33:34.084Z,33.2000
2022-09-18T01:33:45.209Z,33.1500
2022-09-18T01:33:56.376Z,33.2730
2022-09-18T01:34:07.498Z,33.3870
2022-09-18T01:34:18.634Z,33.3560
2022-09-18T01:34:29.767Z,33.3370
2022-09-18T01:34:41.048Z,33.3570
2022-09-18T01:34:52.177Z,33.3680
2022-09-18T01:35:09.793Z,33.4090
2022-09-18T01:35:40.127Z,33.5990
2022-09-18T01:35:41.648Z,33.7010
2022-09-18T01:35:54.302Z,33.5410
2022-09-18T01:36:05.430Z,33.2940
2022-09-18T01:36:16.584Z,33.1080
2022-09-18T01:36:27.706Z,33.0050
2022-09-18T01:36:38.831Z,33.1830
2022-09-18T01:36:49.967Z,33.2320
2022-09-18T01:37:01.236Z,33.3180
2022-09-18T01:37:12.371Z,33.3910
2022-09-18T01:37:23.508Z,33.3630
2022-09-18T01:37:34.638Z,33.3670
2022-09-18T01:37:45.806Z,33.3100
2022-09-18T01:37:56.975Z,33.2820
2022-09-18T01:38:08.108Z,33.3210
2022-09-18T01:38:19.226Z,33.3840
2022-09-18T01:38:30.354Z,33.4220
2022-09-18T01:38:41.494Z,33.3380
2022-09-18T01:38:52.623Z,33.3500
2022-09-18T01:39:03.903Z,33.3380
2022-09-18T01:39:15.086Z,33.2930
2022-09-18T01:39:26.209Z,33.2640
2022-09-18T01:39:37.341Z,33.2880
2022-09-18T01:39:48.467Z,33.2770
2022-09-18T01:39:59.652Z,33.1870
2022-09-18T01:40:10.887Z,33.0760
2022-09-18T01:40:22.070Z,33.2100
2022-09-18T01:40:33.291Z,33.2390
2022-09-18T01:40:44.406Z,33.3240
2022-09-18T01:40:55.575Z,33.2450
2022-09-18T01:41:06.915Z,33.2780
2022-09-18T01:41:17.953Z,33.2840
2022-09-18T01:41:29.098Z,33.2500
2022-09-18T01:41:40.209Z,33.1540
2022-09-18T01:41:51.346Z,33.1790
2022-09-18T01:42:02.473Z,33.2140
2022-09-18T01:42:13.649Z,33.2640
2022-09-18T01:42:24.783Z,33.2710
2022-09-18T01:42:35.924Z,33.2530
2022-09-18T01:42:47.063Z,33.2480
2022-09-18T01:42:58.246Z,33.3040
2022-09-18T01:43:09.519Z,33.3840
2022-09-18T01:43:20.776Z,33.3430
2022-09-18T01:43:31.880Z,33.2590
2022-09-18T01:43:43.008Z,33.3040
2022-09-18T01:43:54.137Z,33.3380
2022-09-18T01:44:05.339Z,33.2880
2022-09-18T01:44:16.529Z,33.2420
2022-09-18T01:44:27.729Z,33.2030
2022-09-18T01:44:38.861Z,33.1870
2022-09-18T01:44:49.997Z,33.1570
2022-09-18T01:45:01.135Z,33.1460
2022-09-18T01:45:12.420Z,33.1870
2022-09-18T01:45:23.552Z,33.1520
2022-09-18T01:45:34.693Z,33.1080
2022-09-18T01:45:45.830Z,33.1790
2022-09-18T01:45:57.014Z,33.2360
2022-09-18T01:46:08.259Z,33.2640
2022-09-18T01:46:19.501Z,33.2090
2022-09-18T01:46:30.665Z,33.1870
2022-09-18T01:46:41.889Z,33.0630
2022-09-18T01:46:53.199Z,32.9110
2022-09-18T01:47:04.340Z,32.8830
2022-09-18T01:47:15.611Z,32.9190
2022-09-18T01:47:26.747Z,32.9800
2022-09-18T01:47:37.884Z,33.0250
2022-09-18T01:47:49.018Z,33.0710
2022-09-18T01:48:00.181Z,33.1100
2022-09-18T01:48:11.309Z,33.1040
2022-09-18T01:48:22.445Z,33.1370
2022-09-18T01:48:33.575Z,33.1210
2022-09-18T01:48:44.802Z,33.0060
2022-09-18T01:48:55.927Z,33.1420
2022-09-18T01:49:07.091Z,33.1510
2022-09-18T01:49:18.358Z,33.1560
2022-09-18T01:49:29.482Z,33.1370
2022-09-18T01:49:40.607Z,33.2620
2022-09-18T01:49:51.738Z,33.2500
2022-09-18T01:50:02.864Z,33.2050
2022-09-18T01:50:13.997Z,33.1420
2022-09-18T01:50:25.167Z,33.1260
2022-09-18T01:50:36.303Z,33.1660
2022-09-18T01:50:47.435Z,33.0870
2022-09-18T01:50:58.572Z,33.1150
2022-09-18T01:51:09.710Z,33.1940
2022-09-18T01:51:20.981Z,33.2310
2022-09-18T01:51:32.107Z,33.3210
2022-09-18T01:51:43.227Z,33.2090
2022-09-18T01:51:54.345Z,33.0690
2022-09-18T01:52:05.473Z,32.9580
2022-09-18T01:52:16.600Z,32.9930
2022-09-18T01:52:27.733Z,32.9780
2022-09-18T01:52:38.855Z,33.0100
2022-09-18T01:52:49.990Z,33.1090
2022-09-18T01:53:01.148Z,33.1770
2022-09-18T01:53:12.272Z,33.1710
2022-09-18T01:53:23.536Z,33.1260
2022-09-18T01:53:34.664Z,33.2030
2022-09-18T01:53:45.803Z,33.1680
2022-09-18T01:53:56.948Z,33.1570
2022-09-18T01:54:08.077Z,33.2590
2022-09-18T01:54:19.198Z,33.2420
2022-09-18T01:54:30.327Z,33.2480
2022-09-18T01:54:41.488Z,33.2640
2022-09-18T01:54:52.614Z,33.2770
2022-09-18T01:55:03.761Z,33.2770
2022-09-18T01:55:14.890Z,33.2250
2022-09-18T01:55:26.164Z,33.2250
2022-09-18T01:55:37.305Z,33.2770
2022-09-18T01:55:48.430Z,33.2820
2022-09-18T01:55:59.550Z,33.2480
2022-09-18T01:56:10.685Z,33.1790
2022-09-18T01:56:21.803Z,33.1460
2022-09-18T01:56:32.927Z,33.1130
2022-09-18T01:56:44.061Z,33.2770
2022-09-18T01:56:55.255Z,33.2310
2022-09-18T01:57:06.452Z,33.1190
2022-09-18T01:57:17.579Z,33.2530
2022-09-18T01:57:28.856Z,33.2360
2022-09-18T01:57:40.054Z,33.1740
2022-09-18T01:57:51.186Z,33.1010
2022-09-18T01:58:02.355Z,33.0670
2022-09-18T01:58:13.489Z,33.0780
2022-09-18T01:58:24.745Z,33.1630
2022-09-18T01:58:35.826Z,33.1680
2022-09-18T01:58:46.967Z,33.1350
2022-09-18T01:58:58.129Z,33.1920
2022-09-18T01:59:09.251Z,33.1410
2022-09-18T01:59:20.381Z,33.1410
2022-09-18T01:59:31.674Z,33.2200
2022-09-18T01:59:42.798Z,33.2250
2022-09-18T01:59:53.918Z,33.2310
2022-09-18T02:00:05.048Z,33.1520
2022-09-18T02:00:16.208Z,33.0840
2022-09-18T02:00:27.336Z,33.0780
2022-09-18T02:00:38.462Z,33.1300
2022-09-18T02:00:49.595Z,32.9720
2022-09-18T02:01:00.723Z,32.9430
2022-09-18T02:01:11.921Z,32.9370
2022-09-18T02:01:23.134Z,32.9110
2022-09-18T02:01:34.520Z,32.8730
2022-09-18T02:01:45.840Z,32.9460
2022-09-18T02:01:57.127Z,32.9650
2022-09-18T02:02:08.424Z,33.0150
2022-09-18T02:02:19.722Z,33.0720
2022-09-18T02:02:31.150Z,33.2130
2022-09-18T02:02:42.701Z,33.2160
2022-09-18T02:02:53.931Z,33.2050
2022-09-18T02:03:05.073Z,33.2030
2022-09-18T02:03:16.198Z,33.0780
2022-09-18T02:03:27.341Z,33.0000
2022-09-18T02:03:38.631Z,32.9830
2022-09-18T02:03:49.760Z,33.0340
2022-09-18T02:04:00.890Z,33.0620
2022-09-18T02:04:12.037Z,33.0050
2022-09-18T02:04:23.168Z,32.9150
2022-09-18T02:04:34.298Z,32.9260
2022-09-18T02:04:45.429Z,33.0560
2022-09-18T02:04:56.567Z,33.0670
2022-09-18T02:05:07.731Z,33.1080
2022-09-18T02:05:18.925Z,33.1630
2022-09-18T02:05:30.053Z,33.0900
2022-09-18T02:05:41.338Z,32.9660
2022-09-18T02:05:52.531Z,32.9370
2022-09-18T02:06:03.659Z,32.9610
2022-09-18T02:06:14.776Z,32.9430
2022-09-18T02:06:25.904Z,32.8310
2022-09-18T02:06:37.030Z,32.7800
2022-09-18T02:06:48.212Z,32.8270
2022-09-18T02:06:59.346Z,32.9680
2022-09-18T02:07:10.473Z,33.0520
2022-09-18T02:07:21.611Z,33.0870
2022-09-18T02:07:32.735Z,33.0470
2022-09-18T02:07:44.017Z,32.9850
2022-09-18T02:07:55.146Z,33.0410
2022-09-18T02:08:06.291Z,33.0580
2022-09-18T02:08:17.492Z,32.9350
2022-09-18T02:08:28.624Z,32.7720
2022-09-18T02:08:39.764Z,32.8100
2022-09-18T02:08:50.885Z,32.8010
2022-09-18T02:09:02.145Z,32.6520
2022-09-18T02:09:13.252Z,32.5690
2022-09-18T02:09:24.388Z,32.6110
2022-09-18T02:09:35.575Z,32.7180
2022-09-18T02:09:46.920Z,32.7000
2022-09-18T02:09:58.064Z,32.8190
2022-09-18T02:10:09.185Z,32.9040
2022-09-18T02:10:20.370Z,32.8840
2022-09-18T02:10:31.570Z,32.8230
2022-09-18T02:10:42.703Z,32.7500
2022-09-18T02:10:53.823Z,32.7050
2022-09-18T02:11:04.983Z,32.6710
2022-09-18T02:11:16.130Z,32.7160
2022-09-18T02:11:27.253Z,32.8030
2022-09-18T02:11:38.444Z,32.6780
2022-09-18T02:11:49.735Z,32.7570
2022-09-18T02:12:00.869Z,32.7840
2022-09-18T02:12:12.045Z,32.7560
2022-09-18T02:12:23.176Z,32.8350
2022-09-18T02:12:34.303Z,32.8130
2022-09-18T02:12:45.428Z,32.8760
2022-09-18T02:12:56.554Z,32.8870
2022-09-18T02:13:07.756Z,32.9150
2022-09-18T02:13:18.936Z,32.9520
2022-09-18T02:13:30.243Z,33.0140
2022-09-18T02:13:41.329Z,32.9870
2022-09-18T02:13:52.601Z,33.0000
2022-09-18T02:14:03.729Z,32.9760
2022-09-18T02:14:14.852Z,32.9710
2022-09-18T02:14:25.979Z,32.8630
2022-09-18T02:14:37.113Z,32.6680
2022-09-18T02:14:48.240Z,32.6660
2022-09-18T02:14:59.405Z,32.6660
2022-09-18T02:15:10.539Z,32.7060
2022-09-18T02:15:21.674Z,32.6050
2022-09-18T02:15:32.722Z,32.4880